Time,TemperatureF,DewpointF,PressureIn,WindDirection,WindDirectionDegrees,WindSpeedMPH,WindSpeedGustMPH,Humidity,HourlyPrecipIn,Conditions,Clouds,dailyrainin,SoftwareType,DateUTC
2013-01-29 00:01:00,38.1,37.6,29.59,NW,306,8.0,9.0,98,0.00,,SKC,0.00,VWS V14.01,2013-01-29 06:01:00,
2013-01-29 00:06:00,38.3,37.8,29.59,WNW,296,6.0,8.0,98,0.00,,SKC,0.00,VWS V14.01,2013-01-29 06:06:00,
2013-01-29 00:11:00,38.4,37.9,29.59,WNW,294,7.0,9.0,98,0.00,,SKC,0.00,VWS V14.01,2013-01-29 06:11:00,
2013-01-29 00:16:00,38.4,37.6,29.59,WNW,296,5.0,6.0,97,0.00,,SKC,0.00,VWS V14.01,2013-01-29 06:16:00,
2013-01-29 00:21:00,38.4,37.6,29.60,WNW,292,7.0,7.0,97,0.00,,SKC,0.00,VWS V14.01,2013-01-29 06:21:00,
2013-01-29 00:26:00,38.4,37.6,29.60,WNW,302,9.0,12.0,97,0.00,,SKC,0.00,VWS V14.01,2013-01-29 06:26:00,
2013-01-29 00:31:00,38.5,37.7,29.60,WNW,302,7.0,7.0,97,0.00,,SKC,0.00,VWS V14.01,2013-01-29 06:31:00,
2013-01-29 00:36:00,38.5,37.7,29.60,NW,306,7.0,9.0,97,0.00,,SKC,0.00,VWS V14.01,2013-01-29 06:36:00,
2013-01-29 00:41:00,38.5,37.7,29.60,NW,315,6.0,11.0,97,0.00,,SKC,0.00,VWS V14.01,2013-01-29 06:41:00,
2013-01-29 00:46:00,38.6,37.8,29.61,NW,309,7.0,9.0,97,0.00,,SKC,0.00,VWS V14.01,2013-01-29 06:46:00,
2013-01-29 00:51:00,38.6,37.8,29.61,WNW,299,14.0,14.0,97,0.00,,SKC,0.00,VWS V14.01,2013-01-29 06:51:00,
2013-01-29 00:56:00,38.7,37.9,29.61,WNW,301,10.0,12.0,97,0.00,,SKC,0.00,VWS V14.01,2013-01-29 06:56:00,
2013-01-29 01:01:00,38.7,38.2,29.61,NW,305,10.0,15.0,98,0.00,,SKC,0.00,VWS V14.01,2013-01-29 07:01:00,
2013-01-29 01:06:00,38.7,38.2,29.62,NW,306,11.0,15.0,98,0.00,,SKC,0.00,VWS V14.01,2013-01-29 07:06:00,
2013-01-29 01:11:00,38.5,37.7,29.62,WNW,301,15.0,15.0,97,0.00,,SKC,0.00,VWS V14.01,2013-01-29 07:11:00,
2013-01-29 01:16:00,38.3,37.8,29.62,NW,321,13.0,16.0,98,0.00,,SKC,0.00,VWS V14.01,2013-01-29 07:16:00,
2013-01-29 01:21:00,38.1,37.6,29.62,NW,313,7.0,14.0,98,0.00,,SKC,0.00,VWS V14.01,2013-01-29 07:21:00,
2013-01-29 01:26:00,37.9,37.1,29.62,WNW,297,12.0,16.0,97,0.00,,SKC,0.00,VWS V14.01,2013-01-29 07:26:00,
2013-01-29 01:31:00,37.7,37.2,29.62,NW,320,10.0,16.0,98,0.00,,SKC,0.00,VWS V14.01,2013-01-29 07:31:00,
2013-01-29 01:36:00,37.5,37.0,29.62,WNW,295,10.0,12.0,98,0.00,,SKC,0.00,VWS V14.01,2013-01-29 07:36:00,
2013-01-29 01:41:00,37.2,36.4,29.62,NW,304,16.0,16.0,97,0.00,,SKC,0.00,VWS V14.01,2013-01-29 07:41:00,
2013-01-29 01:46:00,36.9,36.1,29.62,NW,305,14.0,16.0,97,0.00,,SKC,0.00,VWS V14.01,2013-01-29 07:46:00,
2013-01-29 01:51:00,36.6,35.8,29.63,NW,311,18.0,19.0,97,0.00,,SKC,0.00,VWS V14.01,2013-01-29 07:51:00,
2013-01-29 01:56:00,36.4,35.6,29.63,NW,315,7.0,11.0,97,0.00,,SKC,0.00,VWS V14.01,2013-01-29 07:56:00,
2013-01-29 02:01:00,36.2,35.4,29.63,NW,304,17.0,17.0,97,0.00,,SKC,0.00,VWS V14.01,2013-01-29 08:01:00,
2013-01-29 02:06:00,36.0,35.2,29.63,NW,313,13.0,17.0,97,0.00,,SKC,0.00,VWS V14.01,2013-01-29 08:06:00,
2013-01-29 02:11:00,35.8,35.0,29.64,NW,315,8.0,12.0,97,0.00,,SKC,0.00,VWS V14.01,2013-01-29 08:11:00,
2013-01-29 02:16:00,35.7,34.9,29.64,NW,305,15.0,15.0,97,0.00,,SKC,0.00,VWS V14.01,2013-01-29 08:16:00,
2013-01-29 02:21:00,35.5,34.7,29.65,NW,320,12.0,16.0,97,0.00,,SKC,0.00,VWS V14.01,2013-01-29 08:21:00,
2013-01-29 02:26:00,35.4,34.6,29.65,WNW,300,14.0,14.0,97,0.00,,SKC,0.00,VWS V14.01,2013-01-29 08:26:00,
2013-01-29 02:31:00,35.3,34.5,29.65,NW,319,11.0,13.0,97,0.00,,SKC,0.00,VWS V14.01,2013-01-29 08:31:00,
2013-01-29 02:36:00,35.2,34.4,29.65,NW,306,12.0,17.0,97,0.00,,SKC,0.00,VWS V14.01,2013-01-29 08:36:00,
2013-01-29 02:41:00,35.1,34.3,29.66,NW,319,7.0,13.0,97,0.00,,SKC,0.00,VWS V14.01,2013-01-29 08:41:00,
2013-01-29 02:47:00,35.0,34.2,29.65,WNW,291,11.0,16.0,97,0.00,,SKC,0.00,VWS V14.01,2013-01-29 08:47:00,
2013-01-29 02:52:00,34.9,34.1,29.65,NW,315,9.0,12.0,97,0.00,,SKC,0.00,VWS V14.01,2013-01-29 08:52:00,
2013-01-29 02:57:00,34.8,34.0,29.64,NW,314,16.0,16.0,97,0.00,,SKC,0.00,VWS V14.01,2013-01-29 08:57:00,
2013-01-29 03:02:00,34.7,33.9,29.64,NW,304,9.0,12.0,97,0.00,,SKC,0.00,VWS V14.01,2013-01-29 09:02:00,
2013-01-29 03:07:00,34.6,33.8,29.65,NW,305,11.0,15.0,97,0.00,,SKC,0.00,VWS V14.01,2013-01-29 09:07:00,
2013-01-29 03:12:00,34.4,33.6,29.65,NW,309,9.0,11.0,97,0.00,,SKC,0.00,VWS V14.01,2013-01-29 09:12:00,
2013-01-29 03:17:00,34.3,33.5,29.65,NW,325,7.0,11.0,97,0.00,,SKC,0.00,VWS V14.01,2013-01-29 09:17:00,
2013-01-29 03:22:00,34.1,33.3,29.64,NW,316,10.0,10.0,97,0.00,,SKC,0.00,VWS V14.01,2013-01-29 09:22:00,
2013-01-29 03:27:00,34.0,33.2,29.65,WNW,302,7.0,7.0,97,0.00,,SKC,0.00,VWS V14.01,2013-01-29 09:27:00,
2013-01-29 03:32:00,33.8,33.0,29.64,NW,317,10.0,10.0,97,0.00,,SKC,0.00,VWS V14.01,2013-01-29 09:32:00,
2013-01-29 03:37:00,33.7,32.9,29.64,NW,323,3.0,6.0,97,0.00,,SKC,0.00,VWS V14.01,2013-01-29 09:37:00,
2013-01-29 03:42:00,33.6,32.8,29.64,NW,313,7.0,7.0,97,0.00,,SKC,0.00,VWS V14.01,2013-01-29 09:42:00,
2013-01-29 03:47:00,33.5,32.7,29.64,NW,319,6.0,10.0,97,0.00,,SKC,0.00,VWS V14.01,2013-01-29 09:47:00,
2013-01-29 03:52:00,33.4,32.6,29.65,NW,313,5.0,7.0,97,0.00,,SKC,0.00,VWS V14.01,2013-01-29 09:52:00,
2013-01-29 03:57:00,33.4,32.6,29.64,NW,312,10.0,10.0,97,0.00,,SKC,0.00,VWS V14.01,2013-01-29 09:57:00,
2013-01-29 04:02:00,33.4,32.6,29.65,NW,319,6.0,8.0,97,0.00,,SKC,0.00,VWS V14.01,2013-01-29 10:02:00,
2013-01-29 04:07:00,33.4,32.6,29.66,NW,325,3.0,9.0,97,0.00,,SKC,0.00,VWS V14.01,2013-01-29 10:07:00,
2013-01-29 04:12:00,33.3,32.5,29.67,NW,314,6.0,12.0,97,0.00,,SKC,0.00,VWS V14.01,2013-01-29 10:12:00,
2013-01-29 04:17:00,33.4,32.6,29.67,NW,317,6.0,6.0,97,0.00,,SKC,0.00,VWS V14.01,2013-01-29 10:17:00,
2013-01-29 04:22:00,33.4,32.6,29.67,NW,304,6.0,7.0,97,0.00,,SKC,0.00,VWS V14.01,2013-01-29 10:22:00,
2013-01-29 04:27:00,33.4,32.6,29.68,NW,305,6.0,7.0,97,0.00,,SKC,0.00,VWS V14.01,2013-01-29 10:27:00,
2013-01-29 04:32:00,33.4,32.6,29.68,WNW,295,5.0,9.0,97,0.00,,SKC,0.00,VWS V14.01,2013-01-29 10:32:00,
2013-01-29 04:37:00,33.4,32.6,29.68,WNW,298,5.0,5.0,97,0.00,,SKC,0.00,VWS V14.01,2013-01-29 10:37:00,
2013-01-29 04:42:00,33.4,32.6,29.67,NW,315,5.0,7.0,97,0.00,,SKC,0.00,VWS V14.01,2013-01-29 10:42:00,
2013-01-29 04:47:00,33.4,32.6,29.68,WNW,300,6.0,7.0,97,0.00,,SKC,0.00,VWS V14.01,2013-01-29 10:47:00,
2013-01-29 04:52:00,33.3,32.5,29.68,WNW,300,12.0,12.0,97,0.00,,SKC,0.00,VWS V14.01,2013-01-29 10:52:00,
2013-01-29 04:57:00,33.3,32.5,29.67,NW,304,7.0,9.0,97,0.00,,SKC,0.00,VWS V14.01,2013-01-29 10:57:00,
2013-01-29 05:02:00,33.2,32.4,29.67,WNW,300,5.0,10.0,97,0.00,,SKC,0.00,VWS V14.01,2013-01-29 11:02:00,
2013-01-29 05:07:00,33.1,32.3,29.67,NW,308,6.0,10.0,97,0.00,,SKC,0.00,VWS V14.01,2013-01-29 11:07:00,
2013-01-29 05:12:00,33.1,32.3,29.67,NW,316,6.0,10.0,97,0.00,,SKC,0.00,VWS V14.01,2013-01-29 11:12:00,
2013-01-29 05:17:00,33.0,32.2,29.67,NW,319,5.0,12.0,97,0.00,,SKC,0.00,VWS V14.01,2013-01-29 11:17:00,
2013-01-29 05:22:00,33.0,32.2,29.66,NW,325,5.0,11.0,97,0.00,,SKC,0.00,VWS V14.01,2013-01-29 11:22:00,
2013-01-29 05:27:00,33.0,32.2,29.65,NW,322,4.0,8.0,97,0.00,,SKC,0.00,VWS V14.01,2013-01-29 11:27:00,
2013-01-29 05:33:00,33.0,32.2,29.64,NW,325,6.0,6.0,97,0.00,,SKC,0.00,VWS V14.01,2013-01-29 11:33:00,
2013-01-29 05:38:00,32.9,32.1,29.63,NW,317,10.0,10.0,97,0.00,,SKC,0.00,VWS V14.01,2013-01-29 11:38:00,
2013-01-29 05:43:00,32.9,32.1,29.64,NW,325,3.0,5.0,97,0.00,,SKC,0.00,VWS V14.01,2013-01-29 11:43:00,
2013-01-29 05:48:00,32.9,32.1,29.65,NW,326,2.0,6.0,97,0.00,,SKC,0.00,VWS V14.01,2013-01-29 11:48:00,
2013-01-29 05:53:00,32.9,32.1,29.65,NW,325,5.0,5.0,97,0.00,,SKC,0.00,VWS V14.01,2013-01-29 11:53:00,
2013-01-29 05:58:00,32.9,32.1,29.65,NW,323,5.0,5.0,97,0.00,,SKC,0.00,VWS V14.01,2013-01-29 11:58:00,
2013-01-29 06:03:00,33.0,32.2,29.66,NW,319,4.0,7.0,97,0.00,,SKC,0.00,VWS V14.01,2013-01-29 12:03:00,
2013-01-29 06:08:00,33.0,32.2,29.65,NW,317,7.0,7.0,97,0.00,,SKC,0.00,VWS V14.01,2013-01-29 12:08:00,
2013-01-29 06:13:00,33.0,32.2,29.66,NW,310,6.0,7.0,97,0.00,,SKC,0.00,VWS V14.01,2013-01-29 12:13:00,
2013-01-29 06:18:00,33.0,32.2,29.66,NW,315,9.0,9.0,97,0.00,,SKC,0.00,VWS V14.01,2013-01-29 12:18:00,
2013-01-29 06:23:00,33.0,32.2,29.67,NW,304,10.0,10.0,97,0.00,,SKC,0.00,VWS V14.01,2013-01-29 12:23:00,
2013-01-29 06:28:00,33.0,32.2,29.67,NW,304,9.0,15.0,97,0.00,,SKC,0.00,VWS V14.01,2013-01-29 12:28:00,
2013-01-29 06:33:00,32.9,32.1,29.67,NW,304,11.0,13.0,97,0.00,,SKC,0.00,VWS V14.01,2013-01-29 12:33:00,
2013-01-29 06:38:00,32.9,32.1,29.69,WNW,295,6.0,8.0,97,0.00,,SKC,0.00,VWS V14.01,2013-01-29 12:38:00,
2013-01-29 06:43:00,32.9,32.1,29.69,NW,304,8.0,10.0,97,0.00,,SKC,0.00,VWS V14.01,2013-01-29 12:43:00,
2013-01-29 06:48:00,32.8,32.0,29.68,NW,307,7.0,11.0,97,0.00,,SKC,0.00,VWS V14.01,2013-01-29 12:48:00,
2013-01-29 06:53:00,32.8,32.0,29.68,WNW,301,10.0,10.0,97,0.00,,SKC,0.00,VWS V14.01,2013-01-29 12:53:00,
2013-01-29 06:58:00,32.8,32.0,29.68,WNW,300,5.0,7.0,97,0.00,,SKC,0.00,VWS V14.01,2013-01-29 12:58:00,
2013-01-29 07:03:00,32.7,31.9,29.67,NW,313,5.0,6.0,97,0.00,,SKC,0.00,VWS V14.01,2013-01-29 13:03:00,
2013-01-29 07:08:00,32.7,31.9,29.67,WNW,301,10.0,10.0,97,0.00,,SKC,0.00,VWS V14.01,2013-01-29 13:08:00,
2013-01-29 07:13:00,32.6,31.8,29.67,WNW,302,9.0,9.0,97,0.00,,SKC,0.00,VWS V14.01,2013-01-29 13:13:00,
2013-01-29 07:18:00,32.6,31.8,29.68,NW,306,10.0,10.0,97,0.00,,SKC,0.00,VWS V14.01,2013-01-29 13:18:00,
2013-01-29 07:23:00,32.5,31.7,29.68,NW,307,4.0,8.0,97,0.00,,SKC,0.00,VWS V14.01,2013-01-29 13:23:00,
2013-01-29 07:28:00,32.4,31.6,29.69,WNW,293,6.0,11.0,97,0.00,,SKC,0.00,VWS V14.01,2013-01-29 13:28:00,
2013-01-29 07:33:00,32.3,31.5,29.69,WNW,300,6.0,12.0,97,0.00,,SKC,0.00,VWS V14.01,2013-01-29 13:33:00,
2013-01-29 07:38:00,32.3,31.5,29.70,NW,313,10.0,14.0,97,0.00,,SKC,0.00,VWS V14.01,2013-01-29 13:38:00,
2013-01-29 07:43:00,32.3,31.5,29.70,NW,305,6.0,7.0,97,0.00,,SKC,0.00,VWS V14.01,2013-01-29 13:43:00,
2013-01-29 07:48:00,32.3,31.5,29.71,NW,308,7.0,12.0,97,0.00,,SKC,0.00,VWS V14.01,2013-01-29 13:48:00,
2013-01-29 07:53:00,32.2,31.5,29.70,NW,319,7.0,10.0,97,0.00,,SKC,0.00,VWS V14.01,2013-01-29 13:53:00,
2013-01-29 07:58:00,32.2,31.5,29.71,NW,311,11.0,13.0,97,0.00,,SKC,0.00,VWS V14.01,2013-01-29 13:58:00,
2013-01-29 08:03:00,32.1,31.4,29.70,NW,313,3.0,5.0,97,0.00,,SKC,0.00,VWS V14.01,2013-01-29 14:03:00,
2013-01-29 08:08:00,32.1,31.4,29.71,NNW,329,9.0,9.0,97,0.00,,SKC,0.00,VWS V14.01,2013-01-29 14:08:00,
2013-01-29 08:14:00,32.1,31.4,29.70,NNW,327,11.0,11.0,97,0.00,,SKC,0.00,VWS V14.01,2013-01-29 14:14:00,
2013-01-29 08:19:00,32.1,31.4,29.71,NNW,329,10.0,12.0,97,0.00,,SKC,0.00,VWS V14.01,2013-01-29 14:19:00,
2013-01-29 08:24:00,32.2,31.5,29.71,NNW,336,5.0,12.0,97,0.00,,SKC,0.00,VWS V14.01,2013-01-29 14:24:00,
2013-01-29 08:29:00,32.2,31.5,29.71,NW,306,7.0,8.0,97,0.00,,SKC,0.00,VWS V14.01,2013-01-29 14:29:00,
2013-01-29 08:34:00,32.2,31.5,29.71,NW,317,4.0,9.0,97,0.00,,SKC,0.00,VWS V14.01,2013-01-29 14:34:00,
2013-01-29 08:39:00,32.3,31.5,29.70,NW,315,8.0,9.0,97,0.00,,SKC,0.00,VWS V14.01,2013-01-29 14:39:00,
2013-01-29 08:44:00,32.2,31.5,29.70,NW,320,7.0,10.0,97,0.00,,SKC,0.00,VWS V14.01,2013-01-29 14:44:00,
2013-01-29 08:49:00,32.2,31.5,29.70,NW,316,6.0,11.0,97,0.00,,SKC,0.00,VWS V14.01,2013-01-29 14:49:00,
2013-01-29 08:54:00,32.2,31.5,29.70,NW,326,9.0,12.0,97,0.00,,SKC,0.00,VWS V14.01,2013-01-29 14:54:00,
2013-01-29 08:59:00,32.3,31.5,29.70,NW,315,10.0,11.0,97,0.00,,SKC,0.00,VWS V14.01,2013-01-29 14:59:00,
2013-01-29 09:04:00,32.3,31.5,29.70,NW,312,11.0,11.0,97,0.00,,SKC,0.00,VWS V14.01,2013-01-29 15:04:00,
2013-01-29 09:09:00,32.3,31.5,29.69,NW,315,5.0,9.0,97,0.00,,SKC,0.00,VWS V14.01,2013-01-29 15:09:00,
2013-01-29 09:14:00,32.4,31.6,29.69,NW,321,10.0,10.0,97,0.00,,SKC,0.00,VWS V14.01,2013-01-29 15:14:00,
2013-01-29 09:19:00,32.4,31.6,29.69,NW,317,6.0,14.0,97,0.00,,SKC,0.00,VWS V14.01,2013-01-29 15:19:00,
2013-01-29 09:24:00,32.5,31.7,29.70,NW,318,4.0,7.0,97,0.00,,SKC,0.00,VWS V14.01,2013-01-29 15:24:00,
2013-01-29 09:29:00,32.6,31.8,29.69,NNW,332,5.0,7.0,97,0.00,,SKC,0.00,VWS V14.01,2013-01-29 15:29:00,
2013-01-29 09:34:00,32.7,31.9,29.68,NNW,338,8.0,10.0,97,0.00,,SKC,0.00,VWS V14.01,2013-01-29 15:34:00,
2013-01-29 09:39:00,32.8,32.0,29.68,NW,317,10.0,10.0,97,0.00,,SKC,0.00,VWS V14.01,2013-01-29 15:39:00,
2013-01-29 09:44:00,32.9,32.1,29.69,NNW,327,11.0,13.0,97,0.00,,SKC,0.00,VWS V14.01,2013-01-29 15:44:00,
2013-01-29 09:49:00,33.1,32.3,29.68,NNW,346,12.0,12.0,97,0.00,,SKC,0.00,VWS V14.01,2013-01-29 15:49:00,
2013-01-29 09:54:00,33.5,32.7,29.69,NNW,340,7.0,9.0,97,0.00,,SKC,0.00,VWS V14.01,2013-01-29 15:54:00,
2013-01-29 09:59:00,33.6,32.8,29.69,NW,323,3.0,9.0,97,0.00,,SKC,0.00,VWS V14.01,2013-01-29 15:59:00,
2013-01-29 10:04:00,33.5,32.7,29.69,NNW,344,11.0,11.0,97,0.00,,SKC,0.00,VWS V14.01,2013-01-29 16:04:00,
2013-01-29 10:09:00,33.4,32.6,29.69,NNW,337,10.0,12.0,97,0.00,,SKC,0.00,VWS V14.01,2013-01-29 16:09:00,
2013-01-29 10:14:00,33.3,32.5,29.69,NNW,333,11.0,11.0,97,0.00,,SKC,0.00,VWS V14.01,2013-01-29 16:14:00,
2013-01-29 10:19:00,33.3,32.5,29.68,North,5,9.0,13.0,97,0.00,,SKC,0.00,VWS V14.01,2013-01-29 16:19:00,
2013-01-29 10:24:00,33.3,32.5,29.68,NNW,338,12.0,12.0,97,0.00,,SKC,0.00,VWS V14.01,2013-01-29 16:24:00,
2013-01-29 10:29:00,33.3,32.5,29.69,NNW,346,7.0,10.0,97,0.00,,SKC,0.00,VWS V14.01,2013-01-29 16:29:00,
2013-01-29 10:35:00,33.3,32.5,29.69,NNW,338,9.0,9.0,97,0.00,,SKC,0.00,VWS V14.01,2013-01-29 16:35:00,
2013-01-29 10:40:00,33.3,32.5,29.69,North,5,13.0,13.0,97,0.00,,SKC,0.00,VWS V14.01,2013-01-29 16:40:00,
2013-01-29 10:45:00,33.3,32.5,29.69,North,351,10.0,12.0,97,0.00,,SKC,0.00,VWS V14.01,2013-01-29 16:45:00,
2013-01-29 10:50:00,33.4,32.6,29.70,NNW,337,5.0,7.0,97,0.00,,SKC,0.00,VWS V14.01,2013-01-29 16:50:00,
2013-01-29 10:55:00,33.5,32.7,29.69,NNW,346,9.0,10.0,97,0.00,,SKC,0.00,VWS V14.01,2013-01-29 16:55:00,
2013-01-29 11:00:00,33.5,32.7,29.69,North,355,10.0,11.0,97,0.00,,SKC,0.00,VWS V14.01,2013-01-29 17:00:00,
2013-01-29 11:05:00,33.4,32.6,29.70,North,5,9.0,9.0,97,0.00,,SKC,0.00,VWS V14.01,2013-01-29 17:05:00,
2013-01-29 11:10:00,33.4,32.6,29.70,North,350,11.0,11.0,97,0.00,,SKC,0.00,VWS V14.01,2013-01-29 17:10:00,
2013-01-29 11:15:00,33.4,32.6,29.69,North,355,10.0,11.0,97,0.00,,SKC,0.00,VWS V14.01,2013-01-29 17:15:00,
2013-01-29 11:20:00,33.4,32.6,29.69,North,360,9.0,14.0,97,0.00,,SKC,0.00,VWS V14.01,2013-01-29 17:20:00,
2013-01-29 11:25:00,33.4,32.6,29.69,NNW,345,6.0,9.0,97,0.00,,SKC,0.00,VWS V14.01,2013-01-29 17:25:00,
2013-01-29 11:30:00,33.5,32.7,29.68,NNW,344,4.0,11.0,97,0.00,,SKC,0.00,VWS V14.01,2013-01-29 17:30:00,
2013-01-29 11:35:00,33.5,32.7,29.68,North,350,11.0,11.0,97,0.00,,SKC,0.00,VWS V14.01,2013-01-29 17:35:00,
2013-01-29 11:40:00,33.3,32.5,29.68,NNW,345,9.0,15.0,97,0.00,,SKC,0.00,VWS V14.01,2013-01-29 17:40:00,
2013-01-29 11:45:00,33.2,32.4,29.67,North,355,13.0,15.0,97,0.00,,SKC,0.00,VWS V14.01,2013-01-29 17:45:00,
2013-01-29 11:50:00,33.3,32.5,29.67,NNE,13,10.0,13.0,97,0.00,,SKC,0.00,VWS V14.01,2013-01-29 17:50:00,
2013-01-29 11:55:00,33.3,32.5,29.68,NW,324,15.0,15.0,97,0.00,,SKC,0.00,VWS V14.01,2013-01-29 17:55:00,
2013-01-29 12:00:00,33.3,32.5,29.68,North,355,5.0,9.0,97,0.00,,SKC,0.00,VWS V14.01,2013-01-29 18:00:00,
2013-01-29 12:05:00,33.4,32.6,29.69,NNW,346,5.0,10.0,97,0.00,,SKC,0.00,VWS V14.01,2013-01-29 18:05:00,
2013-01-29 12:10:00,33.4,32.6,29.68,NNE,21,10.0,15.0,97,0.00,,SKC,0.00,VWS V14.01,2013-01-29 18:10:00,
2013-01-29 12:15:00,33.1,32.3,29.67,North,355,14.0,15.0,97,0.00,,SKC,0.00,VWS V14.01,2013-01-29 18:15:00,
2013-01-29 12:20:00,33.2,32.4,29.68,North,5,11.0,14.0,97,0.00,,SKC,0.00,VWS V14.01,2013-01-29 18:20:00,
2013-01-29 12:25:00,33.3,32.5,29.68,NNW,342,6.0,10.0,97,0.00,,SKC,0.00,VWS V14.01,2013-01-29 18:25:00,
2013-01-29 12:30:00,33.4,32.6,29.68,NNW,333,5.0,7.0,97,0.00,,SKC,0.00,VWS V14.01,2013-01-29 18:30:00,
2013-01-29 12:36:00,33.4,32.6,29.67,NNW,330,9.0,10.0,97,0.00,,SKC,0.00,VWS V14.01,2013-01-29 18:36:00,
2013-01-29 12:41:00,33.4,32.6,29.67,North,350,12.0,13.0,97,0.00,,SKC,0.00,VWS V14.01,2013-01-29 18:41:00,
2013-01-29 12:46:00,33.4,32.4,29.67,NNW,343,11.0,12.0,96,0.00,,SKC,0.00,VWS V14.01,2013-01-29 18:46:00,
2013-01-29 12:51:00,33.4,32.4,29.66,NNW,338,9.0,9.0,96,0.00,,SKC,0.00,VWS V14.01,2013-01-29 18:51:00,
2013-01-29 12:56:00,33.5,32.5,29.66,NNW,346,6.0,10.0,96,0.00,,SKC,0.00,VWS V14.01,2013-01-29 18:56:00,
2013-01-29 13:01:00,33.5,32.5,29.66,North,355,5.0,9.0,96,0.00,,SKC,0.00,VWS V14.01,2013-01-29 19:01:00,
2013-01-29 13:06:00,33.5,32.7,29.66,North,350,7.0,13.0,97,0.00,,SKC,0.00,VWS V14.01,2013-01-29 19:06:00,
2013-01-29 13:11:00,33.5,32.5,29.65,NNW,336,12.0,12.0,96,0.00,,SKC,0.00,VWS V14.01,2013-01-29 19:11:00,
2013-01-29 13:16:00,33.5,32.5,29.65,NNE,27,10.0,10.0,96,0.00,,SKC,0.00,VWS V14.01,2013-01-29 19:16:00,
2013-01-29 13:21:00,33.4,32.4,29.65,North,355,7.0,10.0,96,0.00,,SKC,0.00,VWS V14.01,2013-01-29 19:21:00,
2013-01-29 13:26:00,33.6,32.6,29.65,NNW,340,5.0,8.0,96,0.00,,SKC,0.00,VWS V14.01,2013-01-29 19:26:00,
2013-01-29 13:31:00,33.6,32.6,29.64,North,355,12.0,17.0,96,0.00,,SKC,0.00,VWS V14.01,2013-01-29 19:31:00,
2013-01-29 13:36:00,33.5,32.5,29.65,NNW,337,15.0,17.0,96,0.00,,SKC,0.00,VWS V14.01,2013-01-29 19:36:00,
2013-01-29 13:41:00,33.7,32.7,29.65,North,360,14.0,16.0,96,0.00,,SKC,0.00,VWS V14.01,2013-01-29 19:41:00,
2013-01-29 13:46:00,33.7,32.7,29.64,North,360,13.0,13.0,96,0.00,,SKC,0.00,VWS V14.01,2013-01-29 19:46:00,
2013-01-29 13:51:00,33.6,32.6,29.64,North,350,11.0,15.0,96,0.00,,SKC,0.00,VWS V14.01,2013-01-29 19:51:00,
2013-01-29 13:56:00,33.7,32.7,29.64,North,355,7.0,13.0,96,0.00,,SKC,0.00,VWS V14.01,2013-01-29 19:56:00,
2013-01-29 14:02:00,33.8,32.5,29.64,NNW,342,7.0,11.0,95,0.00,,SKC,0.00,VWS V14.01,2013-01-29 20:02:00,
2013-01-29 14:04:00,33.8,32.5,29.64,North,355,12.0,15.0,95,0.00,,SKC,0.00,VWS V14.01,2013-01-29 20:04:00,
2013-01-29 14:09:00,33.8,32.5,29.65,NNW,338,6.0,11.0,95,0.00,,SKC,0.00,VWS V14.01,2013-01-29 20:09:00,
2013-01-29 14:14:00,33.9,32.6,29.65,NNW,335,5.0,11.0,95,0.00,,SKC,0.00,VWS V14.01,2013-01-29 20:14:00,
2013-01-29 14:19:00,34.1,32.8,29.64,NNW,341,13.0,18.0,95,0.00,,SKC,0.00,VWS V14.01,2013-01-29 20:19:00,
2013-01-29 14:24:00,34.1,32.8,29.64,NNW,338,12.0,14.0,95,0.00,,SKC,0.00,VWS V14.01,2013-01-29 20:24:00,
2013-01-29 14:29:00,34.2,32.9,29.64,NNW,332,7.0,14.0,95,0.00,,SKC,0.00,VWS V14.01,2013-01-29 20:29:00,
2013-01-29 14:34:00,34.1,32.8,29.64,North,355,16.0,16.0,95,0.00,,SKC,0.00,VWS V14.01,2013-01-29 20:34:00,
2013-01-29 14:39:00,34.1,32.6,29.63,North,360,13.0,14.0,94,0.00,,SKC,0.00,VWS V14.01,2013-01-29 20:39:00,
2013-01-29 14:44:00,34.2,32.7,29.62,NNW,347,10.0,10.0,94,0.00,,SKC,0.00,VWS V14.01,2013-01-29 20:44:00,
2013-01-29 14:50:00,34.3,32.8,29.63,NNW,336,12.0,12.0,94,0.00,,SKC,0.00,VWS V14.01,2013-01-29 20:50:00,
2013-01-29 14:55:00,34.4,32.9,29.63,North,360,8.0,9.0,94,0.00,,SKC,0.00,VWS V14.01,2013-01-29 20:55:00,
2013-01-29 15:00:00,34.5,32.7,29.63,North,355,12.0,14.0,93,0.00,,SKC,0.00,VWS V14.01,2013-01-29 21:00:00,
2013-01-29 15:05:00,34.6,32.8,29.63,NNE,22,12.0,13.0,93,0.00,,SKC,0.00,VWS V14.01,2013-01-29 21:05:00,
2013-01-29 15:10:00,34.7,32.9,29.63,North,355,19.0,19.0,93,0.00,,SKC,0.00,VWS V14.01,2013-01-29 21:10:00,
2013-01-29 15:15:00,34.7,32.9,29.63,North,5,10.0,15.0,93,0.00,,SKC,0.00,VWS V14.01,2013-01-29 21:15:00,
2013-01-29 15:20:00,34.7,32.6,29.62,North,355,17.0,17.0,92,0.00,,SKC,0.00,VWS V14.01,2013-01-29 21:20:00,
2013-01-29 15:25:00,34.7,32.6,29.62,North,360,17.0,19.0,92,0.00,,SKC,0.00,VWS V14.01,2013-01-29 21:25:00,
2013-01-29 15:30:00,34.8,32.7,29.62,NNE,19,12.0,12.0,92,0.00,,SKC,0.00,VWS V14.01,2013-01-29 21:30:00,
2013-01-29 15:35:00,34.8,32.5,29.63,NNE,15,9.0,13.0,91,0.00,,SKC,0.00,VWS V14.01,2013-01-29 21:35:00,
2013-01-29 15:40:00,34.8,32.5,29.65,North,5,6.0,10.0,91,0.00,,SKC,0.00,VWS V14.01,2013-01-29 21:40:00,
2013-01-29 15:45:00,34.9,32.5,29.65,North,5,10.0,11.0,91,0.00,,SKC,0.00,VWS V14.01,2013-01-29 21:45:00,
2013-01-29 15:50:00,34.9,32.5,29.65,North,355,10.0,11.0,91,0.00,,SKC,0.00,VWS V14.01,2013-01-29 21:50:00,
2013-01-29 15:55:00,34.9,32.5,29.67,North,350,11.0,13.0,91,0.00,,SKC,0.00,VWS V14.01,2013-01-29 21:55:00,
2013-01-29 16:00:00,35.0,32.6,29.66,NNE,28,10.0,14.0,91,0.00,,SKC,0.00,VWS V14.01,2013-01-29 22:00:00,
2013-01-29 16:05:00,35.0,32.6,29.66,North,9,8.0,13.0,91,0.00,,SKC,0.00,VWS V14.01,2013-01-29 22:05:00,
2013-01-29 16:10:00,35.1,32.7,29.66,NNE,15,6.0,8.0,91,0.00,,SKC,0.00,VWS V14.01,2013-01-29 22:10:00,
2013-01-29 16:15:00,35.2,32.6,29.66,North,350,9.0,14.0,90,0.00,,SKC,0.00,VWS V14.01,2013-01-29 22:15:00,
2013-01-29 16:20:00,35.2,32.6,29.65,North,355,9.0,13.0,90,0.00,,SKC,0.00,VWS V14.01,2013-01-29 22:20:00,
2013-01-29 16:25:00,35.2,32.6,29.65,North,360,11.0,11.0,90,0.00,,SKC,0.00,VWS V14.01,2013-01-29 22:25:00,
2013-01-29 16:30:00,35.3,32.7,29.64,North,360,5.0,13.0,90,0.00,,SKC,0.00,VWS V14.01,2013-01-29 22:30:00,
2013-01-29 16:35:00,35.3,32.7,29.63,NNW,347,12.0,12.0,90,0.00,,SKC,0.00,VWS V14.01,2013-01-29 22:35:00,
2013-01-29 16:40:00,35.3,32.7,29.63,North,355,11.0,13.0,90,0.00,,SKC,0.00,VWS V14.01,2013-01-29 22:40:00,
2013-01-29 16:45:00,35.3,32.7,29.63,North,360,13.0,15.0,90,0.00,,SKC,0.00,VWS V14.01,2013-01-29 22:45:00,
2013-01-29 16:50:00,35.4,32.8,29.64,North,355,10.0,13.0,90,0.00,,SKC,0.00,VWS V14.01,2013-01-29 22:50:00,
2013-01-29 16:55:00,35.4,32.8,29.65,North,355,15.0,15.0,90,0.00,,SKC,0.00,VWS V14.01,2013-01-29 22:55:00,
2013-01-29 17:00:00,35.4,32.8,29.66,NNW,338,8.0,15.0,90,0.00,,SKC,0.00,VWS V14.01,2013-01-29 23:00:00,
2013-01-29 17:05:00,35.5,32.9,29.67,NNW,336,4.0,13.0,90,0.00,,SKC,0.00,VWS V14.01,2013-01-29 23:05:00,
2013-01-29 17:10:00,35.4,32.8,29.66,North,5,9.0,17.0,90,0.00,,SKC,0.00,VWS V14.01,2013-01-29 23:10:00,
2013-01-29 17:15:00,35.5,32.9,29.65,North,355,13.0,16.0,90,0.00,,SKC,0.00,VWS V14.01,2013-01-29 23:15:00,
2013-01-29 17:20:00,35.5,32.9,29.65,North,11,9.0,17.0,90,0.00,,SKC,0.00,VWS V14.01,2013-01-29 23:20:00,
2013-01-29 17:26:00,35.5,32.9,29.66,North,360,12.0,14.0,90,0.00,,SKC,0.00,VWS V14.01,2013-01-29 23:26:00,
2013-01-29 17:31:00,35.5,32.6,29.65,North,5,7.0,13.0,89,0.00,,SKC,0.00,VWS V14.01,2013-01-29 23:31:00,
2013-01-29 17:36:00,35.5,32.6,29.67,North,355,10.0,10.0,89,0.00,,SKC,0.00,VWS V14.01,2013-01-29 23:36:00,
2013-01-29 17:41:00,35.4,32.5,29.67,North,355,6.0,9.0,89,0.00,,SKC,0.00,VWS V14.01,2013-01-29 23:41:00,
2013-01-29 17:46:00,35.4,32.5,29.66,North,351,9.0,9.0,89,0.00,,SKC,0.00,VWS V14.01,2013-01-29 23:46:00,
2013-01-29 17:51:00,35.3,32.4,29.66,North,355,9.0,12.0,89,0.00,,SKC,0.00,VWS V14.01,2013-01-29 23:51:00,
2013-01-29 17:56:00,35.2,32.3,29.66,North,355,6.0,10.0,89,0.00,,SKC,0.00,VWS V14.01,2013-01-29 23:56:00,
2013-01-29 18:01:00,35.2,32.6,29.66,NNW,336,6.0,12.0,90,0.00,,SKC,0.00,VWS V14.01,2013-01-30 00:01:00,
2013-01-29 18:06:00,35.2,32.6,29.66,North,355,6.0,9.0,90,0.00,,SKC,0.00,VWS V14.01,2013-01-30 00:06:00,
2013-01-29 18:11:00,35.2,32.6,29.65,North,355,11.0,13.0,90,0.00,,SKC,0.00,VWS V14.01,2013-01-30 00:11:00,
2013-01-29 18:16:00,35.1,32.5,29.65,NNW,348,5.0,9.0,90,0.00,,SKC,0.00,VWS V14.01,2013-01-30 00:16:00,
2013-01-29 18:21:00,35.1,32.5,29.64,North,350,6.0,13.0,90,0.00,,SKC,0.00,VWS V14.01,2013-01-30 00:21:00,
2013-01-29 18:26:00,35.0,32.4,29.66,North,355,6.0,11.0,90,0.00,,SKC,0.00,VWS V14.01,2013-01-30 00:26:00,
2013-01-29 18:31:00,35.1,32.5,29.65,NNW,335,5.0,13.0,90,0.00,,SKC,0.00,VWS V14.01,2013-01-30 00:31:00,
2013-01-29 18:36:00,35.1,32.7,29.66,North,351,14.0,17.0,91,0.00,,SKC,0.00,VWS V14.01,2013-01-30 00:36:00,
2013-01-29 18:41:00,35.1,32.7,29.67,North,355,9.0,9.0,91,0.00,,SKC,0.00,VWS V14.01,2013-01-30 00:41:00,
2013-01-29 18:46:00,35.1,32.7,29.68,North,355,6.0,11.0,91,0.00,,SKC,0.00,VWS V14.01,2013-01-30 00:46:00,
2013-01-29 18:51:00,35.1,32.7,29.69,NNW,342,7.0,11.0,91,0.00,,SKC,0.00,VWS V14.01,2013-01-30 00:51:00,
2013-01-29 18:56:00,35.1,32.5,29.67,North,349,12.0,12.0,90,0.00,,SKC,0.00,VWS V14.01,2013-01-30 00:56:00,
2013-01-29 19:01:00,35.0,32.4,29.67,NNW,346,13.0,13.0,90,0.00,,SKC,0.00,VWS V14.01,2013-01-30 01:01:00,
2013-01-29 19:06:00,35.0,32.4,29.68,NNW,348,6.0,10.0,90,0.00,,SKC,0.00,VWS V14.01,2013-01-30 01:06:00,
2013-01-29 19:11:00,35.0,32.4,29.68,NNW,335,7.0,13.0,90,0.00,,SKC,0.00,VWS V14.01,2013-01-30 01:11:00,
2013-01-29 19:16:00,35.0,32.4,29.69,NNW,329,6.0,10.0,90,0.00,,SKC,0.00,VWS V14.01,2013-01-30 01:16:00,
2013-01-29 19:21:00,35.0,32.4,29.67,NNW,346,9.0,14.0,90,0.00,,SKC,0.00,VWS V14.01,2013-01-30 01:21:00,
2013-01-29 19:26:00,35.0,32.4,29.67,NNW,332,7.0,15.0,90,0.00,,SKC,0.00,VWS V14.01,2013-01-30 01:26:00,
2013-01-29 19:31:00,35.0,32.4,29.66,NW,325,12.0,13.0,90,0.00,,SKC,0.00,VWS V14.01,2013-01-30 01:31:00,
2013-01-29 19:36:00,35.0,32.6,29.68,NNW,341,11.0,12.0,91,0.00,,SKC,0.00,VWS V14.01,2013-01-30 01:36:00,
2013-01-29 19:41:00,35.0,32.6,29.68,North,355,12.0,13.0,91,0.00,,SKC,0.00,VWS V14.01,2013-01-30 01:41:00,
2013-01-29 19:47:00,35.0,32.6,29.67,NNW,338,9.0,11.0,91,0.00,,SKC,0.00,VWS V14.01,2013-01-30 01:47:00,
2013-01-29 19:52:00,34.9,32.5,29.69,NNW,344,4.0,6.0,91,0.00,,SKC,0.00,VWS V14.01,2013-01-30 01:52:00,
2013-01-29 19:57:00,34.9,32.5,29.69,NNW,335,14.0,14.0,91,0.00,,SKC,0.00,VWS V14.01,2013-01-30 01:57:00,
2013-01-29 20:02:00,34.9,32.5,29.71,NW,320,7.0,7.0,91,0.00,,SKC,0.00,VWS V14.01,2013-01-30 02:02:00,
2013-01-29 20:07:00,34.9,32.5,29.69,NW,315,4.0,6.0,91,0.00,,SKC,0.00,VWS V14.01,2013-01-30 02:07:00,
2013-01-29 20:12:00,34.8,32.5,29.70,NW,321,5.0,13.0,91,0.00,,SKC,0.00,VWS V14.01,2013-01-30 02:12:00,
2013-01-29 20:17:00,34.7,32.3,29.70,NW,325,7.0,7.0,91,0.00,,SKC,0.00,VWS V14.01,2013-01-30 02:17:00,
2013-01-29 20:22:00,34.7,32.3,29.71,NNW,335,7.0,9.0,91,0.00,,SKC,0.00,VWS V14.01,2013-01-30 02:22:00,
2013-01-29 20:27:00,34.6,32.2,29.71,North,355,9.0,14.0,91,0.00,,SKC,0.00,VWS V14.01,2013-01-30 02:27:00,
2013-01-29 20:32:00,34.6,32.2,29.72,NNW,329,7.0,7.0,91,0.00,,SKC,0.00,VWS V14.01,2013-01-30 02:32:00,
2013-01-29 20:37:00,34.6,32.2,29.70,NW,326,7.0,14.0,91,0.00,,SKC,0.00,VWS V14.01,2013-01-30 02:37:00,
2013-01-29 20:42:00,34.5,32.2,29.70,NNW,333,11.0,12.0,91,0.00,,SKC,0.00,VWS V14.01,2013-01-30 02:42:00,
2013-01-29 20:47:00,34.5,32.2,29.70,NW,326,7.0,11.0,91,0.00,,SKC,0.00,VWS V14.01,2013-01-30 02:47:00,
2013-01-29 20:52:00,34.4,31.8,29.71,NW,313,9.0,12.0,90,0.00,,SKC,0.00,VWS V14.01,2013-01-30 02:52:00,
2013-01-29 20:57:00,34.4,31.8,29.70,NNW,333,13.0,13.0,90,0.00,,SKC,0.00,VWS V14.01,2013-01-30 02:57:00,
2013-01-29 21:02:00,34.3,31.7,29.68,NNW,336,10.0,14.0,90,0.00,,SKC,0.00,VWS V14.01,2013-01-30 03:02:00,
2013-01-29 21:07:00,34.3,31.7,29.66,NNW,337,20.0,21.0,90,0.00,,SKC,0.00,VWS V14.01,2013-01-30 03:07:00,
2013-01-29 21:12:00,34.2,31.6,29.66,NW,319,21.0,25.0,90,0.00,,SKC,0.00,VWS V14.01,2013-01-30 03:12:00,
2013-01-29 21:17:00,34.2,31.6,29.66,NNW,334,15.0,16.0,90,0.00,,SKC,0.00,VWS V14.01,2013-01-30 03:17:00,
2013-01-29 21:22:00,34.2,31.3,29.66,NW,323,11.0,18.0,89,0.00,,SKC,0.00,VWS V14.01,2013-01-30 03:22:00,
2013-01-29 21:27:00,34.1,31.2,29.67,NW,322,16.0,19.0,89,0.00,,SKC,0.00,VWS V14.01,2013-01-30 03:27:00,
2013-01-29 21:32:00,33.9,31.0,29.66,NNW,329,5.0,16.0,89,0.00,,SKC,0.00,VWS V14.01,2013-01-30 03:32:00,
2013-01-29 21:37:00,33.8,31.2,29.65,NNW,327,15.0,18.0,90,0.00,,SKC,0.00,VWS V14.01,2013-01-30 03:37:00,
2013-01-29 21:42:00,33.7,31.1,29.65,NNW,335,8.0,18.0,90,0.00,,SKC,0.00,VWS V14.01,2013-01-30 03:42:00,
2013-01-29 21:47:00,33.5,30.9,29.65,NNW,340,11.0,16.0,90,0.00,,SKC,0.00,VWS V14.01,2013-01-30 03:47:00,
2013-01-29 21:52:00,33.4,31.1,29.66,NNW,346,12.0,17.0,91,0.00,,SKC,0.00,VWS V14.01,2013-01-30 03:52:00,
2013-01-29 21:57:00,33.2,30.9,29.67,NNW,345,7.0,16.0,91,0.00,,SKC,0.00,VWS V14.01,2013-01-30 03:57:00,
2013-01-29 22:02:00,33.2,30.9,29.68,NNW,328,12.0,14.0,91,0.00,,SKC,0.00,VWS V14.01,2013-01-30 04:02:00,
2013-01-29 22:07:00,33.2,31.1,29.68,NNW,329,4.0,12.0,92,0.00,,SKC,0.00,VWS V14.01,2013-01-30 04:07:00,
2013-01-29 22:12:00,33.2,31.1,29.68,NNW,328,11.0,18.0,92,0.00,,SKC,0.00,VWS V14.01,2013-01-30 04:12:00,
2013-01-29 22:17:00,33.2,31.1,29.67,NNW,340,14.0,14.0,92,0.00,,SKC,0.00,VWS V14.01,2013-01-30 04:17:00,
2013-01-29 22:22:00,33.2,31.1,29.67,NW,324,9.0,13.0,92,0.00,,SKC,0.00,VWS V14.01,2013-01-30 04:22:00,
2013-01-29 22:27:00,33.3,31.2,29.67,NNW,341,14.0,14.0,92,0.00,,SKC,0.00,VWS V14.01,2013-01-30 04:27:00,
2013-01-29 22:32:00,33.3,31.2,29.67,NNW,340,11.0,16.0,92,0.00,,SKC,0.00,VWS V14.01,2013-01-30 04:32:00,
2013-01-29 22:37:00,33.3,31.2,29.68,NNW,336,11.0,19.0,92,0.00,,SKC,0.00,VWS V14.01,2013-01-30 04:37:00,
2013-01-29 22:42:00,33.3,31.2,29.67,NNW,329,16.0,19.0,92,0.00,,SKC,0.00,VWS V14.01,2013-01-30 04:42:00,
2013-01-29 22:47:00,33.3,31.2,29.67,NNW,331,14.0,18.0,92,0.00,,SKC,0.00,VWS V14.01,2013-01-30 04:47:00,
2013-01-29 22:52:00,33.3,31.2,29.68,NNW,333,12.0,15.0,92,0.00,,SKC,0.00,VWS V14.01,2013-01-30 04:52:00,
2013-01-29 22:57:00,33.3,31.2,29.68,NNW,346,8.0,16.0,92,0.00,,SKC,0.00,VWS V14.01,2013-01-30 04:57:00,
2013-01-29 23:00:00,33.2,31.1,29.69,NW,325,9.0,13.0,92,0.00,,SKC,0.00,VWS V14.01,2013-01-30 05:00:00,
2013-01-29 23:01:00,33.2,31.1,29.69,NW,322,9.0,13.0,92,0.00,,SKC,0.00,VWS V14.01,2013-01-30 05:01:00,
2013-01-29 23:04:00,33.2,31.1,29.69,NNW,329,11.0,16.0,92,0.00,,SKC,0.00,VWS V14.01,2013-01-30 05:04:00,
2013-01-29 23:10:00,33.1,30.8,29.70,NW,324,7.0,16.0,91,0.00,,SKC,0.00,VWS V14.01,2013-01-30 05:10:00,
2013-01-29 23:15:00,33.1,30.8,29.71,North,350,11.0,12.0,91,0.00,,SKC,0.00,VWS V14.01,2013-01-30 05:15:00,
2013-01-29 23:20:00,33.0,30.7,29.71,NNW,331,9.0,11.0,91,0.00,,SKC,0.00,VWS V14.01,2013-01-30 05:20:00,
2013-01-29 23:25:00,32.9,30.6,29.68,NNW,344,11.0,12.0,91,0.00,,SKC,0.00,VWS V14.01,2013-01-30 05:25:00,
2013-01-29 23:30:00,32.8,30.5,29.68,NNW,336,2.0,11.0,91,0.00,,SKC,0.00,VWS V14.01,2013-01-30 05:30:00,
2013-01-29 23:35:00,32.6,30.3,29.67,NW,325,14.0,15.0,91,0.00,,SKC,0.00,VWS V14.01,2013-01-30 05:35:00,
2013-01-29 23:40:00,32.4,30.1,29.67,NNW,343,13.0,18.0,91,0.00,,SKC,0.00,VWS V14.01,2013-01-30 05:40:00,
2013-01-29 23:45:00,32.2,29.9,29.67,NNW,339,6.0,12.0,91,0.00,,SKC,0.00,VWS V14.01,2013-01-30 05:45:00,
2013-01-29 23:50:00,32.1,30.0,29.66,NNW,342,12.0,16.0,92,0.00,,SKC,0.00,VWS V14.01,2013-01-30 05:50:00,
2013-01-29 23:55:00,32.0,29.9,29.66,NNW,329,9.0,13.0,92,0.00,,SKC,0.00,VWS V14.01,2013-01-30 05:55:00,